This is the latest recevied weather packets stored in our database for station/object ED4YAF-13. If no packets are shown the sender has not sent any weather packets the latest 10 day(s).
| Time | Temp. | Humidity | Pressure | Rain* | Wind** | Luminosity | Snow |
|---|---|---|---|---|---|---|---|
| 1787749039 | 23.33° C | 28% | 1005.9 hPa | - | - | - | - |
| 1787748131 | 22.78° C | 28% | 1006.4 hPa | - | - | - | - |
| 1787747228 | 22.78° C | 27% | 1006.7 hPa | - | - | - | - |
| 1787746332 | 22.22° C | 28% | 1007 hPa | - | - | - | - |
| 1787745425 | 22.22° C | 31% | 1006.8 hPa | - | - | - | - |
| 1787744532 | 22.22° C | 32% | 1007 hPa | - | - | - | - |
| 1787743625 | 21.67° C | 35% | 1007.7 hPa | - | - | - | - |
| 1787742733 | 20.56° C | 39% | 1008.6 hPa | - | - | - | - |
| 1787741825 | 21.11° C | 40% | 1008.4 hPa | - | - | - | - |
| 1787740932 | 20° C | 42% | 1009.1 hPa | - | - | - | - |
| 1787740025 | 20° C | 45% | 1009.3 hPa | - | - | - | - |
| 1787739125 | 18.89° C | 49% | 1010.2 hPa | - | - | - | - |
| 1787738232 | 18.89° C | 49% | 1010.2 hPa | - | - | - | - |
| 1787737332 | 18.33° C | 49% | 1010.5 hPa | - | - | - | - |
| 1787736426 | 18.33° C | 49% | 1010.4 hPa | - | - | - | - |
| 1787735517 | 18.33° C | 53% | 1010.6 hPa | - | - | - | - |
| 1787734612 | 17.22° C | 54% | 1011 hPa | - | - | - | - |
| 1787733712 | 16.67° C | 57% | 1011.3 hPa | - | - | - | - |
| 1787732812 | 15° C | 60% | 1012.5 hPa | - | - | - | - |
| 1787731906 | 14.44° C | 62% | 1013 hPa | - | - | - | - |
| 1787731005 | 14.44° C | 62% | 1012.6 hPa | - | - | - | - |
| 1787730105 | 15° C | 60% | 1012.3 hPa | - | - | - | - |
| 1787729206 | 15° C | 61% | 1012.3 hPa | - | - | - | - |
| 1787728290 | 14.44° C | 61% | 1012.6 hPa | - | - | - | - |
| 1787727390 | 14.44° C | 60% | 1012.7 hPa | - | - | - | - |
* Rain since midnight (hover to see other rain measurements)
** Current wind speed in m/s (hover to see current wind gust speed)